Time;durP1;ratioP1;P1;durP2;ratioP2;P2;SDS_P1;SDS_P2;PMS_P1;PMS_P2;Temp;Humidity;BMP_temperature;BMP_pressure;BME280_temperature;BME280_humidity;BME280_pressure;Samples;Min_cycle;Max_cycle;Signal;HPM_P1;HPM_P2
2023/09/09 00:00:50;;;;;;;8.60;6.68;;;;;;;20.34;60.96;100843.22;5029754;28;20226;-71
2023/09/09 00:03:18;;;;;;;12.30;7.72;;;;;;;20.27;61.24;100851.31;5028890;28;20262;-70
2023/09/09 00:05:46;;;;;;;9.25;7.45;;;;;;;20.23;61.33;100848.88;5027797;28;20623;-69
2023/09/09 00:08:15;;;;;;;9.70;7.07;;;;;;;20.19;61.62;100844.66;5030999;28;20226;-68
2023/09/09 00:10:44;;;;;;;9.02;7.35;;;;;;;20.15;61.62;100846.56;5032694;28;20221;-69
2023/09/09 00:13:13;;;;;;;15.20;7.75;;;;;;;20.12;61.91;100849.28;5031012;28;20226;-70
2023/09/09 00:15:41;;;;;;;8.65;7.43;;;;;;;20.10;61.96;100845.84;5032998;28;20672;-68
2023/09/09 00:18:09;;;;;;;9.40;7.68;;;;;;;20.07;62.28;100851.22;5032700;28;20211;-66
2023/09/09 00:20:39;;;;;;;10.23;6.60;;;;;;;20.06;62.25;100846.88;5030824;28;20234;-67
2023/09/09 00:23:08;;;;;;;9.30;8.27;;;;;;;20.01;62.30;100851.47;5024740;28;20728;-67
2023/09/09 00:25:36;;;;;;;10.18;8.02;;;;;;;20.04;62.53;100853.97;5034023;28;20252;-67
2023/09/09 00:28:08;;;;;;;11.15;7.18;;;;;;;20.01;62.30;100851.47;5032959;28;20275;-66
2023/09/09 00:30:36;;;;;;;13.23;8.70;;;;;;;19.99;62.52;100843.69;5029317;28;20264;-67
2023/09/09 00:33:07;;;;;;;10.38;9.18;;;;;;;20.00;61.62;100839.28;5030478;28;20285;-66
2023/09/09 00:35:41;;;;;;;9.93;8.27;;;;;;;19.98;61.34;100846.34;5023580;28;20661;-66
2023/09/09 00:38:10;;;;;;;11.18;7.97;;;;;;;20.03;61.77;100844.41;5032715;28;20218;-68
2023/09/09 00:40:38;;;;;;;10.57;8.63;;;;;;;20.01;62.12;100841.00;5033047;28;20214;-68
2023/09/09 00:43:08;;;;;;;10.65;8.82;;;;;;;19.93;61.92;100843.06;5030652;28;20435;-67
2023/09/09 00:45:36;;;;;;;8.60;7.70;;;;;;;19.89;62.02;100841.47;5031453;28;20218;-67
2023/09/09 00:48:04;;;;;;;11.35;8.02;;;;;;;19.88;62.08;100843.19;5034595;28;20590;-67
2023/09/09 00:50:32;;;;;;;10.27;8.88;;;;;;;19.90;62.30;100837.94;5027485;28;20202;-67
2023/09/09 00:53:01;;;;;;;9.80;8.15;;;;;;;19.88;62.56;100834.50;5030648;28;20198;-67
2023/09/09 00:55:30;;;;;;;10.48;8.00;;;;;;;19.88;62.50;100839.72;5031479;28;20225;-68
2023/09/09 00:57:58;;;;;;;11.05;8.80;;;;;;;19.86;62.55;100841.56;5029390;28;20215;-67
2023/09/09 01:00:27;;;;;;;10.13;8.55;;;;;;;19.84;62.99;100835.53;5027645;28;20568;-68
2023/09/09 01:02:57;;;;;;;12.15;8.93;;;;;;;19.84;63.01;100828.53;5030882;28;20230;-69
2023/09/09 01:05:26;;;;;;;9.05;8.15;;;;;;;19.82;62.65;100834.75;5028042;28;20200;-66
2023/09/09 01:07:55;;;;;;;9.82;8.60;;;;;;;19.77;62.96;100838.41;5032871;28;20203;-66
2023/09/09 01:10:24;;;;;;;10.32;8.82;;;;;;;19.76;63.11;100836.66;5026200;28;20207;-67
2023/09/09 01:12:53;;;;;;;9.95;8.73;;;;;;;19.76;62.61;100830.59;5029564;28;20599;-68
2023/09/09 01:15:24;;;;;;;11.20;8.70;;;;;;;19.71;62.89;100838.63;5031342;28;20205;-67
2023/09/09 01:17:55;;;;;;;10.60;8.60;;;;;;;19.67;63.05;100837.03;5033926;28;20218;-68
2023/09/09 01:20:28;;;;;;;11.25;8.85;;;;;;;19.64;63.36;100838.91;5031203;28;20203;-67
2023/09/09 01:22:57;;;;;;;10.20;8.40;;;;;;;19.63;63.43;100837.19;5032027;28;20713;-68
2023/09/09 01:25:26;;;;;;;9.95;8.90;;;;;;;19.65;63.25;100844.06;5026413;28;20213;-68
2023/09/09 01:27:54;;;;;;;11.30;8.27;;;;;;;19.64;63.28;100841.50;5030886;28;20215;-69
2023/09/09 01:30:22;;;;;;;9.73;8.73;;;;;;;19.60;63.21;100835.50;5031874;28;20209;-68
2023/09/09 01:32:50;;;;;;;20.40;11.20;;;;;;;19.57;63.56;100837.38;5029255;28;20260;-66
2023/09/09 01:35:19;;;;;;;12.27;10.70;;;;;;;19.58;63.57;100832.06;5034182;28;20569;-68
2023/09/09 01:37:49;;;;;;;11.05;9.88;;;;;;;19.58;63.52;100842.53;5030649;28;20717;-67
2023/09/09 01:40:20;;;;;;;13.50;9.25;;;;;;;19.59;63.70;100838.16;5031666;28;20290;-67
2023/09/09 01:42:49;;;;;;;12.35;8.48;;;;;;;19.61;63.42;100842.44;5027960;28;20286;-68
2023/09/09 01:45:18;;;;;;;12.50;9.25;;;;;;;19.56;63.63;100839.13;5031928;28;20696;-66
2023/09/09 01:47:46;;;;;;;14.70;10.30;;;;;;;19.51;64.00;100831.47;5029271;28;20246;-67
2023/09/09 01:50:14;;;;;;;14.68;11.95;;;;;;;19.55;63.66;100840.03;5042277;28;20557;-67
2023/09/09 01:52:43;;;;;;;11.70;9.30;;;;;;;19.57;63.14;100838.22;5023969;28;20198;-68
2023/09/09 01:55:14;;;;;;;10.93;9.20;;;;;;;19.53;63.61;100842.72;5031245;28;20244;-68
2023/09/09 01:57:44;;;;;;;11.93;9.07;;;;;;;19.53;63.66;100836.63;5029129;28;20230;-66
2023/09/09 02:00:13;;;;;;;12.13;9.30;;;;;;;19.53;63.82;100839.25;5028306;28;20269;-68
2023/09/09 02:02:41;;;;;;;9.75;8.75;;;;;;;19.49;63.96;100835.88;5030461;28;20677;-67
2023/09/09 02:05:10;;;;;;;12.82;10.38;;;;;;;19.50;63.89;100844.56;5023592;28;20203;-66
2023/09/09 02:07:38;;;;;;;10.48;9.40;;;;;;;19.51;63.92;100851.50;5031132;28;20202;-68
2023/09/09 02:10:07;;;;;;;12.63;9.23;;;;;;;19.47;64.06;100849.91;5028779;28;20290;-66
2023/09/09 02:12:43;;;;;;;11.93;9.07;;;;;;;19.45;64.38;100856.97;5030165;28;20301;-67
2023/09/09 02:15:13;;;;;;;12.80;10.77;;;;;;;19.41;64.43;100861.44;5020907;28;20708;-66
2023/09/09 02:17:41;;;;;;;11.63;9.85;;;;;;;19.38;64.45;100855.47;5027612;28;20214;-65
2023/09/09 02:20:10;;;;;;;15.35;11.35;;;;;;;19.35;64.53;100866.03;5031144;28;20683;-68
2023/09/09 02:22:39;;;;;;;11.65;9.90;;;;;;;19.31;64.79;100860.91;5026936;28;20242;-71
2023/09/09 02:25:08;;;;;;;12.38;10.02;;;;;;;19.30;64.85;100847.91;5030995;28;20211;-67
2023/09/09 02:27:36;;;;;;;13.50;10.13;;;;;;;19.29;64.69;100856.63;5030530;28;20376;-66
2023/09/09 02:30:05;;;;;;;15.98;10.45;;;;;;;19.25;64.70;100853.28;5032899;28;20211;-67
2023/09/09 02:32:37;;;;;;;16.13;9.90;;;;;;;19.19;64.99;100850.03;5028870;28;20211;-69
2023/09/09 02:35:08;;;;;;;14.18;10.77;;;;;;;19.16;64.99;100856.22;5026315;28;20265;-65
2023/09/09 02:37:36;;;;;;;13.82;10.93;;;;;;;19.14;65.46;100857.16;5025537;28;20719;-65
2023/09/09 02:40:04;;;;;;;12.07;10.77;;;;;;;19.12;65.38;100857.22;5030006;28;20221;-66
2023/09/09 02:42:32;;;;;;;14.07;10.75;;;;;;;19.10;65.40;100848.56;5029423;28;20252;-64
2023/09/09 02:45:02;;;;;;;18.10;11.15;;;;;;;19.09;65.59;100857.31;5030350;28;20206;-66
2023/09/09 02:47:30;;;;;;;14.35;10.65;;;;;;;19.04;65.51;100856.63;5029361;28;20681;-65
2023/09/09 02:49:59;;;;;;;14.02;11.20;;;;;;;19.02;65.87;100853.22;5030456;28;20206;-66
2023/09/09 02:52:30;;;;;;;14.60;11.48;;;;;;;19.01;65.93;100861.97;5023206;28;20202;-67
2023/09/09 02:54:58;;;;;;;12.13;10.82;;;;;;;18.97;65.84;100860.34;5033650;28;20209;-67
2023/09/09 02:57:26;;;;;;;13.45;10.80;;;;;;;18.96;65.84;100853.41;5026076;28;20206;-67
2023/09/09 02:59:54;;;;;;;16.13;12.63;;;;;;;18.99;65.95;100853.31;5026481;28;20609;-66
2023/09/09 03:02:22;;;;;;;13.70;11.25;;;;;;;19.01;65.79;100859.34;5030116;28;20289;-66
2023/09/09 03:04:50;;;;;;;14.65;11.52;;;;;;;18.99;65.91;100858.53;5030522;28;20610;-68
2023/09/09 03:07:20;;;;;;;15.20;11.40;;;;;;;18.98;66.01;100856.84;5030119;28;20225;-67
2023/09/09 03:09:48;;;;;;;17.00;11.85;;;;;;;18.97;65.97;100857.75;5022406;28;20199;-66
2023/09/09 03:12:20;;;;;;;15.48;11.48;;;;;;;18.93;65.88;100858.75;5029029;28;20206;-66
2023/09/09 03:14:49;;;;;;;15.23;11.07;;;;;;;18.91;66.03;100856.19;5027895;28;20216;-66
2023/09/09 03:17:17;;;;;;;16.35;11.85;;;;;;;18.86;66.01;100859.88;5029437;28;20293;-65
2023/09/09 03:19:45;;;;;;;13.93;11.75;;;;;;;18.78;66.18;100860.97;5028796;28;20318;-65
2023/09/09 03:22:13;;;;;;;13.10;11.50;;;;;;;18.72;66.76;100858.53;5028563;28;20265;-66
2023/09/09 03:24:43;;;;;;;14.98;11.88;;;;;;;18.70;67.06;100852.47;5022950;28;20234;-65
2023/09/09 03:27:11;;;;;;;13.02;11.35;;;;;;;18.70;66.86;100856.84;5022701;28;20680;-66
2023/09/09 03:29:39;;;;;;;16.52;12.27;;;;;;;18.71;66.86;100858.59;5029422;28;20684;-65
2023/09/09 03:32:07;;;;;;;16.60;12.52;;;;;;;18.71;67.11;100854.22;5028609;28;20534;-66
2023/09/09 03:34:34;;;;;;;15.75;13.05;;;;;;;18.71;67.38;100851.63;5027290;28;20212;-64
2023/09/09 03:37:03;;;;;;;16.80;13.45;;;;;;;18.75;67.18;100850.63;5029883;28;20592;-66
2023/09/09 03:39:31;;;;;;;16.35;13.15;;;;;;;18.75;67.17;100850.63;5030210;28;20215;-64
2023/09/09 03:42:01;;;;;;;14.77;13.02;;;;;;;18.77;66.95;100854.00;5024108;28;20235;-65
2023/09/09 03:44:29;;;;;;;14.25;12.85;;;;;;;18.76;67.11;100852.31;5029587;28;20577;-67
2023/09/09 03:46:57;;;;;;;15.65;12.80;;;;;;;18.74;67.25;100851.53;5028294;28;20222;-65
2023/09/09 03:49:25;;;;;;;16.77;12.95;;;;;;;18.70;67.42;100852.47;5025412;28;20725;-65
2023/09/09 03:51:53;;;;;;;15.25;13.65;;;;;;;18.68;67.63;100856.91;5027062;28;20195;-64
2023/09/09 03:54:21;;;;;;;15.90;13.30;;;;;;;18.69;67.37;100849.91;5031475;28;20206;-65
2023/09/09 03:56:49;;;;;;;16.13;13.50;;;;;;;18.69;67.68;100842.94;5029507;28;20211;-67
2023/09/09 03:59:18;;;;;;;15.65;13.35;;;;;;;18.71;67.64;100842.94;5025588;28;20206;-65
2023/09/09 04:01:46;;;;;;;16.67;13.68;;;;;;;18.71;67.78;100840.31;5025394;28;20211;-65
2023/09/09 04:04:14;;;;;;;17.50;13.15;;;;;;;18.69;67.76;100835.09;5025910;28;20645;-67
2023/09/09 04:06:42;;;;;;;16.60;13.73;;;;;;;18.70;67.70;100836.81;5029422;28;20202;-66
2023/09/09 04:09:10;;;;;;;18.88;15.32;;;;;;;18.68;67.57;100843.84;5030148;28;20297;-67
2023/09/09 04:11:38;;;;;;;16.33;13.95;;;;;;;18.66;67.77;100844.78;5031112;28;20206;-69
2023/09/09 04:14:06;;;;;;;17.25;14.10;;;;;;;18.65;67.84;100848.31;5029625;28;20496;-66
2023/09/09 04:16:35;;;;;;;17.77;14.60;;;;;;;18.63;67.92;100842.28;5029927;28;20207;-64
2023/09/09 04:19:06;;;;;;;19.52;14.35;;;;;;;18.63;67.89;100845.75;5029148;28;20202;-66
2023/09/09 04:21:34;;;;;;;17.05;14.93;;;;;;;18.64;68.26;100846.63;5032858;28;20210;-67
2023/09/09 04:24:02;;;;;;;18.73;13.93;;;;;;;18.67;68.20;100849.09;5031597;28;20202;-66
2023/09/09 04:26:29;;;;;;;16.00;13.57;;;;;;;18.68;68.11;100848.22;5028784;28;20202;-67
2023/09/09 04:29:00;;;;;;;18.02;15.13;;;;;;;18.67;68.01;100849.97;5033873;28;20222;-67
2023/09/09 04:31:27;;;;;;;16.23;14.25;;;;;;;18.69;67.73;100848.16;5024978;28;20288;-67
2023/09/09 04:33:57;;;;;;;18.00;13.88;;;;;;;18.67;68.04;100855.19;5030353;28;20194;-65
2023/09/09 04:36:25;;;;;;;14.93;13.32;;;;;;;18.70;68.11;100856.84;5030508;28;20233;-67
2023/09/09 04:38:53;;;;;;;16.17;14.13;;;;;;;18.69;68.17;100855.13;5027339;28;20206;-67
2023/09/09 04:41:21;;;;;;;18.42;13.70;;;;;;;18.69;67.96;100857.75;5031713;28;20720;-67
2023/09/09 04:43:49;;;;;;;22.33;15.25;;;;;;;18.70;67.99;100857.69;5032640;28;20206;-66
2023/09/09 04:46:17;;;;;;;20.63;14.50;;;;;;;18.69;67.96;100858.59;5033506;28;20199;-67
2023/09/09 04:48:46;;;;;;;16.65;13.75;;;;;;;18.68;67.91;100867.34;5030856;28;20301;-66
2023/09/09 04:51:15;;;;;;;19.05;14.88;;;;;;;18.67;68.15;100864.75;5032430;28;20199;-66
2023/09/09 04:53:43;;;;;;;18.63;14.52;;;;;;;18.69;68.23;100874.25;5032267;28;20628;-68
2023/09/09 04:56:11;;;;;;;16.05;14.45;;;;;;;18.71;68.37;100879.50;5032393;28;20733;-66
2023/09/09 04:58:39;;;;;;;16.88;14.52;;;;;;;18.73;68.47;100873.28;5022499;28;20206;-65
2023/09/09 05:01:07;;;;;;;18.65;14.60;;;;;;;18.78;68.39;100881.00;5031911;28;20217;-66
2023/09/09 05:03:35;;;;;;;16.92;14.73;;;;;;;18.83;68.21;100874.72;5031058;28;20208;-65
2023/09/09 05:06:04;;;;;;;18.73;15.40;;;;;;;18.88;68.30;100871.09;5026001;28;20203;-64
2023/09/09 05:08:33;;;;;;;17.42;14.90;;;;;;;18.92;68.08;100872.69;5030475;28;20203;-67
2023/09/09 05:11:01;;;;;;;16.67;14.20;;;;;;;18.98;67.85;100862.91;5031307;28;20207;-66
2023/09/09 05:13:29;;;;;;;17.10;13.98;;;;;;;19.05;67.81;100867.03;5032461;28;20657;-67
2023/09/09 05:15:57;;;;;;;18.17;14.35;;;;;;;19.09;67.51;100870.38;5031902;28;20202;-66
2023/09/09 05:18:25;;;;;;;15.75;14.10;;;;;;;19.14;67.44;100865.00;5032202;28;20222;-67
2023/09/09 05:20:56;;;;;;;15.43;13.82;;;;;;;19.21;67.18;100874.34;5028235;28;20214;-66
2023/09/09 05:23:23;;;;;;;17.15;13.45;;;;;;;19.25;66.76;100876.78;5028728;28;20669;-67
2023/09/09 05:25:53;;;;;;;17.92;14.93;;;;;;;19.31;67.38;100881.81;5027857;28;20765;-69
2023/09/09 05:28:22;;;;;;;18.83;14.80;;;;;;;19.33;66.81;100878.28;5023570;28;20209;-67
2023/09/09 05:30:50;;;;;;;25.70;15.32;;;;;;;19.39;66.69;100880.69;5031947;28;20612;-66
2023/09/09 05:33:19;;;;;;;20.38;15.30;;;;;;;19.43;66.66;100872.69;5028099;28;20290;-66
2023/09/09 05:35:50;;;;;;;17.75;15.32;;;;;;;19.49;66.32;100869.88;5033067;28;20633;-65
2023/09/09 05:38:18;;;;;;;19.00;15.23;;;;;;;19.57;65.95;100873.97;5024174;28;20666;-65
2023/09/09 05:40:46;;;;;;;24.23;16.63;;;;;;;19.65;65.99;100875.44;5029138;28;20211;-65
2023/09/09 05:43:15;;;;;;;20.05;16.67;;;;;;;19.71;65.58;100879.59;5030438;28;20207;-65
2023/09/09 05:45:43;;;;;;;27.05;17.35;;;;;;;19.73;65.40;100870.78;5027609;28;20556;-67
2023/09/09 05:48:11;;;;;;;19.17;15.80;;;;;;;19.79;65.19;100873.16;5029447;28;20205;-66
2023/09/09 05:50:39;;;;;;;19.25;16.13;;;;;;;19.78;64.79;100868.00;5023382;28;20202;-66
2023/09/09 05:53:07;;;;;;;18.35;16.45;;;;;;;19.81;65.00;100873.13;5032085;28;20230;-65
2023/09/09 05:55:35;;;;;;;19.73;16.67;;;;;;;19.84;64.53;100877.38;5032503;28;20720;-65
2023/09/09 05:58:04;;;;;;;18.08;15.45;;;;;;;19.92;64.45;100883.16;5032140;28;20285;-67
2023/09/09 06:00:33;;;;;;;22.10;16.00;;;;;;;20.00;64.43;100886.38;5032225;28;20230;-65
2023/09/09 06:03:02;;;;;;;18.63;16.52;;;;;;;20.09;63.82;100891.25;5030584;28;20691;-64
2023/09/09 06:05:30;;;;;;;18.00;15.48;;;;;;;20.19;63.64;100887.38;5021899;28;20220;-67
2023/09/09 06:07:58;;;;;;;25.02;16.90;;;;;;;20.27;63.24;100887.94;5031357;28;20202;-68
2023/09/09 06:10:26;;;;;;;24.67;17.33;;;;;;;20.32;62.38;100887.75;5029011;28;20211;-67
2023/09/09 06:12:54;;;;;;;20.10;16.40;;;;;;;20.32;62.47;100886.91;5028527;28;20313;-66
2023/09/09 06:15:22;;;;;;;20.30;16.08;;;;;;;20.28;62.48;100888.78;5031525;28;20330;-61
2023/09/09 06:17:52;;;;;;;18.92;14.93;;;;;;;20.32;62.71;100889.53;5021853;28;20355;-70
2023/09/09 06:20:20;;;;;;;21.35;14.63;;;;;;;20.48;62.68;100880.19;5028999;28;20286;-65
2023/09/09 06:22:48;;;;;;;18.13;14.60;;;;;;;20.74;62.14;100885.25;5036831;28;20292;-69
2023/09/09 06:25:16;;;;;;;18.35;14.23;;;;;;;20.96;61.43;100885.25;5032462;28;20687;-63
2023/09/09 06:27:44;;;;;;;19.27;14.95;;;;;;;21.18;60.99;100893.06;5026883;28;20238;-68
2023/09/09 06:30:14;;;;;;;18.50;14.13;;;;;;;21.33;59.86;100894.22;5022597;28;20234;-70
2023/09/09 06:32:42;;;;;;;18.52;14.57;;;;;;;21.50;59.39;100900.50;5026793;28;20195;-71
2023/09/09 06:35:11;;;;;;;17.23;14.07;;;;;;;21.71;58.70;100899.56;5027048;28;20203;-69
2023/09/09 06:37:40;;;;;;;17.00;14.52;;;;;;;22.03;57.98;100911.25;5028541;28;20214;-70
2023/09/09 06:40:09;;;;;;;19.35;14.90;;;;;;;22.31;57.52;100910.00;5031601;28;20211;-70
2023/09/09 06:42:37;;;;;;;18.55;14.15;;;;;;;22.52;56.72;100909.00;5031468;28;20590;-70
2023/09/09 06:45:06;;;;;;;16.70;14.90;;;;;;;22.76;56.24;100912.25;5031375;28;20206;-69
2023/09/09 06:47:34;;;;;;;16.65;13.88;;;;;;;22.94;55.47;100912.28;5031174;28;20272;-70
2023/09/09 06:50:02;;;;;;;15.40;13.80;;;;;;;23.14;55.04;100913.00;5030531;28;20209;-68
2023/09/09 06:52:32;;;;;;;17.75;14.13;;;;;;;23.25;54.08;100919.50;5024270;28;20245;-68
2023/09/09 06:55:00;;;;;;;14.52;13.02;;;;;;;23.29;53.83;100910.53;5024554;28;20248;-67
2023/09/09 06:57:28;;;;;;;18.73;13.65;;;;;;;23.39;53.75;100906.50;5023108;28;20210;-66
2023/09/09 06:59:56;;;;;;;20.38;13.27;;;;;;;23.37;52.92;100900.47;5030582;28;20217;-70
2023/09/09 07:02:24;;;;;;;15.20;12.13;;;;;;;23.32;52.47;100907.75;5029695;28;20726;-65
2023/09/09 07:04:54;;;;;;;16.05;11.57;;;;;;;23.21;52.49;100913.56;5030560;28;21371;-68
2023/09/09 07:07:22;;;;;;;13.43;11.25;;;;;;;23.11;52.38;100910.53;5034597;28;20230;-69
2023/09/09 07:09:57;;;;;;;21.88;11.07;;;;;;;23.01;52.66;100911.91;5030786;28;20210;-68
2023/09/09 07:12:25;;;;;;;14.48;10.20;;;;;;;23.11;52.92;100905.25;5027604;28;20206;-70
2023/09/09 07:14:53;;;;;;;13.35;10.52;;;;;;;23.30;52.72;100899.91;5031116;28;20265;-67
2023/09/09 07:17:21;;;;;;;13.10;10.93;;;;;;;23.52;51.76;100891.78;5029512;28;20571;-68
2023/09/09 07:19:49;;;;;;;12.10;10.05;;;;;;;23.77;51.17;100890.53;5030939;28;20601;-69
2023/09/09 07:22:17;;;;;;;13.95;10.75;;;;;;;24.03;50.36;100892.63;5028284;28;20603;-69
2023/09/09 07:24:47;;;;;;;14.38;10.52;;;;;;;24.27;49.49;100897.50;5030910;28;20732;-68
2023/09/09 07:27:19;;;;;;;18.45;11.07;;;;;;;24.43;49.27;100893.09;5027427;28;20577;-64
2023/09/09 07:29:47;;;;;;;13.13;9.80;;;;;;;24.58;48.81;100894.00;5031390;28;20292;-65
2023/09/09 07:32:17;;;;;;;19.95;10.80;;;;;;;24.69;48.27;100882.88;5029622;28;20199;-63
2023/09/09 07:34:48;;;;;;;17.67;10.10;;;;;;;24.72;47.92;100891.44;5026307;28;20209;-64
2023/09/09 07:37:16;;;;;;;13.00;9.75;;;;;;;24.71;47.76;100881.00;5030116;28;20249;-66
2023/09/09 07:39:45;;;;;;;14.10;9.68;;;;;;;24.71;47.48;100883.66;5028048;28;20199;-66
2023/09/09 07:42:13;;;;;;;14.25;9.35;;;;;;;24.76;47.05;100884.22;5028267;28;20755;-65
2023/09/09 07:44:43;;;;;;;10.40;8.25;;;;;;;24.82;46.54;100886.50;5030907;28;20207;-66
2023/09/09 07:47:12;;;;;;;14.07;9.52;;;;;;;24.95;46.55;100890.13;5032884;28;20202;-66
2023/09/09 07:49:40;;;;;;;10.90;8.55;;;;;;;25.06;46.10;100879.78;5034608;28;20634;-68
2023/09/09 07:52:09;;;;;;;14.50;8.45;;;;;;;25.19;45.59;100879.13;5034702;28;20675;-65
2023/09/09 07:54:37;;;;;;;12.30;8.43;;;;;;;25.38;44.87;100879.72;5030909;28;20216;-64
2023/09/09 07:57:05;;;;;;;13.00;9.02;;;;;;;25.53;45.00;100885.84;5028300;28;20246;-68
2023/09/09 07:59:33;;;;;;;13.35;8.60;;;;;;;25.72;44.85;100882.94;5033619;28;20661;-65
2023/09/09 08:02:05;;;;;;;14.38;9.45;;;;;;;25.95;44.24;100884.19;5033454;28;20215;-67
2023/09/09 08:04:33;;;;;;;14.63;9.30;;;;;;;26.10;43.53;100879.72;5034093;28;20202;-67
2023/09/09 08:07:01;;;;;;;14.43;9.05;;;;;;;26.19;43.56;100885.28;5033098;28;20234;-65
2023/09/09 08:09:29;;;;;;;11.00;8.95;;;;;;;26.23;42.86;100880.66;5034300;28;20744;-65
2023/09/09 08:11:57;;;;;;;12.80;7.82;;;;;;;26.37;42.46;100882.44;5031911;28;20678;-65
2023/09/09 08:14:25;;;;;;;16.95;7.40;;;;;;;26.55;41.60;100889.19;5031664;28;20203;-65
2023/09/09 08:16:55;;;;;;;9.27;7.22;;;;;;;26.71;40.83;100889.03;5032523;28;20203;-68
2023/09/09 08:19:24;;;;;;;10.45;8.40;;;;;;;26.93;41.02;100881.38;5030130;28;20225;-63
2023/09/09 08:21:53;;;;;;;11.98;8.85;;;;;;;27.16;40.61;100879.00;5029165;28;20289;-65
2023/09/09 08:24:21;;;;;;;9.63;8.73;;;;;;;27.24;40.40;100881.97;5030142;28;20198;-64
2023/09/09 08:26:49;;;;;;;8.50;7.63;;;;;;;27.38;40.17;100873.94;5030561;28;20203;-66
2023/09/09 08:29:19;;;;;;;15.15;8.98;;;;;;;27.56;39.78;100877.13;5033983;28;20209;-68
2023/09/09 08:31:48;;;;;;;10.50;7.72;;;;;;;27.80;39.57;100884.31;5034160;28;20523;-68
2023/09/09 08:34:16;;;;;;;8.38;6.65;;;;;;;27.93;39.42;100878.06;5030822;28;20230;-68
2023/09/09 08:36:45;;;;;;;11.55;6.80;;;;;;;28.15;39.42;100879.19;5040817;28;20574;-68
2023/09/09 08:39:13;;;;;;;9.85;6.40;;;;;;;28.21;37.57;100872.59;5031634;28;20195;-69
2023/09/09 08:41:54;;;;;;;9.13;5.90;;;;;;;28.20;37.19;100876.19;5031138;28;20225;-68
2023/09/09 08:44:32;;;;;;;8.18;5.68;;;;;;;28.46;36.65;100874.31;5029042;28;20392;-68
2023/09/09 08:47:00;;;;;;;7.95;5.70;;;;;;;28.72;35.99;100878.56;5024712;28;20282;-69
2023/09/09 08:49:31;;;;;;;8.30;6.20;;;;;;;28.79;35.95;100879.78;5045518;28;20293;-67
2023/09/09 08:52:04;;;;;;;9.05;6.22;;;;;;;28.60;36.50;100877.66;5046490;28;20205;-68
2023/09/09 08:54:33;;;;;;;9.18;6.13;;;;;;;28.67;36.78;100880.69;5039577;28;20301;-66
2023/09/09 08:57:02;;;;;;;17.65;12.82;;;;;;;28.94;36.46;100876.94;5052325;28;20206;-69
2023/09/09 08:59:33;;;;;;;8.77;5.95;;;;;;;29.29;35.65;100882.25;5053132;28;20214;-67
2023/09/09 09:02:03;;;;;;;8.15;6.10;;;;;;;29.66;34.88;100885.59;5053107;28;20281;-68
2023/09/09 09:04:33;;;;;;;7.55;6.25;;;;;;;30.02;34.48;100887.16;5053599;28;20217;-70
2023/09/09 09:07:03;;;;;;;11.35;6.25;;;;;;;30.53;33.64;100883.94;5039123;28;20202;-69
2023/09/09 09:09:31;;;;;;;10.55;5.97;;;;;;;30.46;33.21;100884.56;5053315;28;20213;-69
2023/09/09 09:12:00;;;;;;;8.48;6.35;;;;;;;30.38;33.69;100881.66;5039525;28;20711;-70
2023/09/09 09:14:28;;;;;;;9.02;6.93;;;;;;;30.52;34.25;100876.06;5053050;28;20202;-67
2023/09/09 09:16:56;;;;;;;9.07;6.40;;;;;;;30.72;34.08;100885.06;5052971;28;20236;-68
2023/09/09 09:19:27;;;;;;;10.15;6.22;;;;;;;30.95;33.55;100881.34;5052952;28;20652;-71
2023/09/09 09:21:55;;;;;;;11.30;6.45;;;;;;;31.04;33.59;100877.06;5050077;28;20230;-69
2023/09/09 09:24:26;;;;;;;7.60;5.45;;;;;;;31.04;32.50;100880.59;5048993;28;20706;-68
2023/09/09 09:26:55;;;;;;;10.98;6.05;;;;;;;31.12;32.52;100879.94;5043853;28;20260;-67
2023/09/09 09:29:23;;;;;;;9.15;6.18;;;;;;;31.15;32.55;100871.69;5052461;28;20209;-67
2023/09/09 09:31:52;;;;;;;8.40;6.05;;;;;;;31.15;32.10;100870.81;5053071;28;20236;-68
2023/09/09 09:34:21;;;;;;;7.45;6.35;;;;;;;31.10;32.56;100871.22;5052780;28;20626;-68
2023/09/09 09:36:49;;;;;;;9.90;6.43;;;;;;;30.88;32.55;100874.00;5052713;28;20264;-68
2023/09/09 09:39:17;;;;;;;7.43;6.18;;;;;;;30.66;32.52;100865.13;5038755;28;20616;-69
2023/09/09 09:41:48;;;;;;;9.55;5.50;;;;;;;30.56;33.43;100865.06;5052283;28;20209;-69
2023/09/09 09:44:20;;;;;;;9.38;5.90;;;;;;;30.57;33.22;100868.56;5052438;28;20336;-68
2023/09/09 09:47:03;;;;;;;7.13;5.78;;;;;;;30.60;33.37;100875.41;5023456;28;20613;-68
2023/09/09 09:49:38;;;;;;;10.80;5.82;;;;;;;30.51;33.82;100872.56;5052296;28;20282;-68
2023/09/09 09:52:07;;;;;;;7.00;6.10;;;;;;;30.33;33.33;100869.59;5052252;28;20198;-67
2023/09/09 09:54:38;;;;;;;7.22;5.32;;;;;;;30.14;33.38;100872.03;5052342;28;20260;-69
2023/09/09 09:57:08;;;;;;;15.43;5.68;;;;;;;29.98;33.88;100871.56;5045131;28;20241;-68
2023/09/09 09:59:38;;;;;;;10.50;5.57;;;;;;;29.95;33.81;100879.78;5032202;28;20198;-68
2023/09/09 10:02:06;;;;;;;7.93;5.25;;;;;;;29.97;33.74;100873.41;5025507;28;20679;-68
2023/09/09 10:04:38;;;;;;;7.55;4.68;;;;;;;29.83;34.12;100866.50;5052154;28;20271;-68
2023/09/09 10:07:11;;;;;;;6.20;4.18;;;;;;;29.39;35.06;100872.63;5046570;28;20562;-68
2023/09/09 10:09:45;;;;;;;4.38;3.95;;;;;;;29.00;36.28;100876.50;5044867;28;20206;-69
2023/09/09 10:12:20;;;;;;;8.95;4.57;;;;;;;28.70;36.49;100874.34;5043704;28;20658;-72
2023/09/09 10:15:06;;;;;;;7.45;4.38;;;;;;;28.52;37.09;100880.03;5037793;28;20543;-68
2023/09/09 10:17:36;;;;;;;4.95;4.13;;;;;;;28.56;36.34;100870.03;5042898;28;20206;-68
2023/09/09 10:20:06;;;;;;;7.00;4.38;;;;;;;28.61;36.78;100875.84;5032137;28;20230;-67
2023/09/09 10:22:36;;;;;;;5.32;4.20;;;;;;;28.76;36.37;100880.03;5038259;28;20244;-69
2023/09/09 10:25:07;;;;;;;7.47;4.78;;;;;;;28.95;36.55;100873.34;5042495;28;20206;-68
2023/09/09 10:27:37;;;;;;;6.93;4.53;;;;;;;29.47;35.77;100870.22;5033604;28;20242;-69
2023/09/09 10:30:08;;;;;;;5.10;4.35;;;;;;;30.11;34.91;100864.28;5050491;28;20206;-68
2023/09/09 10:32:37;;;;;;;5.55;4.20;;;;;;;30.66;33.77;100873.09;5037110;28;20210;-68
2023/09/09 10:35:06;;;;;;;6.57;4.13;;;;;;;31.23;32.01;100869.22;5051252;28;20232;-69
2023/09/09 10:37:36;;;;;;;11.40;4.43;;;;;;;31.58;31.27;100868.00;5037510;28;20210;-67
2023/09/09 10:40:06;;;;;;;7.07;4.20;;;;;;;32.09;31.61;100867.09;5044464;28;20214;-67
2023/09/09 10:42:38;;;;;;;4.53;4.07;;;;;;;32.75;30.45;100869.16;5044913;28;20214;-67
2023/09/09 10:45:29;;;;;;;4.35;4.03;;;;;;;32.66;28.88;100864.66;5024586;28;20641;-67
2023/09/09 10:48:01;;;;;;;7.70;4.10;;;;;;;32.17;29.78;100872.56;5042563;28;20210;-68
2023/09/09 10:50:40;;;;;;;4.70;4.20;;;;;;;31.73;30.07;100866.66;5047966;28;20203;-67
2023/09/09 10:53:16;;;;;;;7.55;4.20;;;;;;;31.41;31.10;100864.16;5044387;28;20205;-69
2023/09/09 10:55:45;;;;;;;6.68;3.90;;;;;;;31.20;31.47;100865.97;5051185;28;20202;-70
2023/09/09 10:58:18;;;;;;;5.35;3.53;;;;;;;30.97;32.52;100868.78;5034619;28;20300;-67
2023/09/09 11:00:47;;;;;;;4.40;3.90;;;;;;;30.84;32.59;100862.78;5040752;28;20232;-68
2023/09/09 11:03:17;;;;;;;5.32;3.85;;;;;;;30.69;33.17;100864.03;5048846;28;20254;-69
2023/09/09 11:06:05;;;;;;;7.90;3.78;;;;;;;30.73;32.62;100860.97;5031265;28;20673;-68
2023/09/09 11:08:44;;;;;;;6.40;3.72;;;;;;;30.89;31.58;100862.38;5048340;28;20289;-68
2023/09/09 11:11:15;;;;;;;7.28;3.42;;;;;;;31.16;31.43;100857.41;5039634;28;20194;-69
2023/09/09 11:14:01;;;;;;;5.50;3.53;;;;;;;31.36;30.54;100858.38;5048953;28;20233;-69
2023/09/09 11:16:34;;;;;;;4.00;3.60;;;;;;;31.71;30.60;100855.31;5038351;28;20268;-69
2023/09/09 11:19:05;;;;;;;10.45;4.03;;;;;;;32.16;29.70;100856.72;5036837;28;20247;-70
2023/09/09 11:21:35;;;;;;;5.45;3.67;;;;;;;32.39;29.94;100857.31;5049564;28;20210;-68
2023/09/09 11:24:04;;;;;;;6.18;3.60;;;;;;;32.44;29.76;100855.97;5039612;28;20601;-67